createdAt,value
2024-03-09T00:02:27.015Z,6.03
2024-03-09T00:05:29.548Z,5.60
2024-03-09T00:08:31.240Z,5.18
2024-03-09T00:11:33.441Z,5.95
2024-03-09T00:14:36.702Z,4.97
2024-03-09T00:17:43.492Z,5.75
2024-03-09T00:20:45.297Z,9.30
2024-03-09T00:23:51.698Z,5.43
2024-03-09T00:26:53.295Z,5.88
2024-03-09T00:29:57.808Z,6.13
2024-03-09T00:33:01.169Z,5.43
2024-03-09T00:36:02.902Z,6.10
2024-03-09T00:39:05.006Z,5.72
2024-03-09T00:42:09.457Z,5.60
2024-03-09T00:45:12.398Z,5.47
2024-03-09T00:48:14.469Z,7.00
2024-03-09T00:51:16.134Z,5.72
2024-03-09T00:54:19.196Z,6.20
2024-03-09T00:57:21.964Z,5.28
2024-03-09T01:00:25.301Z,6.00
2024-03-09T01:03:30.807Z,5.40
2024-03-09T01:06:32.429Z,6.03
2024-03-09T01:09:34.169Z,5.68
2024-03-09T01:12:37.315Z,6.15
2024-03-09T01:15:38.920Z,6.45
2024-03-09T01:18:40.585Z,5.32
2024-03-09T01:21:43.009Z,5.32
2024-03-09T01:24:45.742Z,6.03
2024-03-09T01:27:47.812Z,5.55
2024-03-09T01:30:49.471Z,5.90
2024-03-09T01:33:51.127Z,5.72
2024-03-09T01:36:52.726Z,7.10
2024-03-09T01:39:54.884Z,6.47
2024-03-09T01:42:57.485Z,6.90
2024-03-09T01:45:59.159Z,7.43
2024-03-09T01:49:00.812Z,5.70
2024-03-09T01:52:02.994Z,6.38
2024-03-09T01:55:09.188Z,5.43
2024-03-09T01:58:12.213Z,5.95
2024-03-09T02:01:23.540Z,6.30
2024-03-09T02:04:29.835Z,6.03
2024-03-09T02:07:34.381Z,5.57
2024-03-09T02:10:36.090Z,5.88
2024-03-09T02:13:37.788Z,4.80
2024-03-09T02:16:39.550Z,5.75
2024-03-09T02:19:42.243Z,6.93
2024-03-09T02:22:48.373Z,6.22
2024-03-09T02:25:52.426Z,5.00
2024-03-09T02:28:55.293Z,6.60
2024-03-09T02:31:57.191Z,5.93
2024-03-09T02:34:58.828Z,5.85
2024-03-09T02:38:00.561Z,5.82
2024-03-09T02:41:02.231Z,6.70
2024-03-09T02:44:04.044Z,5.90
2024-03-09T02:47:06.316Z,6.15
2024-03-09T02:50:08.525Z,6.05
2024-03-09T02:53:10.245Z,5.75
2024-03-09T02:56:19.363Z,5.80
2024-03-09T02:59:21.006Z,6.68
2024-03-09T03:02:41.205Z,6.20
2024-03-09T03:05:44.135Z,6.50
2024-03-09T03:08:47.185Z,7.78
2024-03-09T03:11:48.933Z,7.38
2024-03-09T03:14:51.388Z,9.20
2024-03-09T03:17:52.972Z,8.32
2024-03-09T03:20:54.664Z,9.82
2024-03-09T03:23:56.337Z,12.43
2024-03-09T03:26:58.661Z,9.80
2024-03-09T03:30:00.295Z,9.73
2024-03-09T03:33:02.089Z,9.45
2024-03-09T03:36:03.842Z,10.57
2024-03-09T03:39:05.988Z,9.35
2024-03-09T03:42:07.732Z,12.52
2024-03-09T03:45:12.793Z,11.02
2024-03-09T03:48:17.136Z,11.32
2024-03-09T03:51:19.225Z,9.73
2024-03-09T03:57:24.918Z,10.13
2024-03-09T04:00:27.136Z,9.90
2024-03-09T04:03:32.751Z,9.50
2024-03-09T04:06:34.991Z,10.67
2024-03-09T04:09:37.063Z,10.07
2024-03-09T04:12:42.337Z,9.30
2024-03-09T04:15:45.706Z,11.05
2024-03-09T04:18:47.297Z,10.23
2024-03-09T04:21:48.941Z,9.35
2024-03-09T04:24:50.559Z,9.55
2024-03-09T04:27:53.673Z,9.70
2024-03-09T04:30:55.750Z,9.05
2024-03-09T04:33:57.329Z,9.93
2024-03-09T04:37:00.579Z,10.52
2024-03-09T04:40:10.611Z,11.40
2024-03-09T04:43:15.364Z,9.20
2024-03-09T04:46:17.205Z,9.30
2024-03-09T04:49:18.936Z,11.30
2024-03-09T04:52:20.547Z,8.63
2024-03-09T04:55:23.890Z,11.45
2024-03-09T04:58:25.475Z,8.32
2024-03-09T05:01:28.428Z,8.63
2024-03-09T05:04:30.033Z,8.82
2024-03-09T05:07:31.648Z,9.88
2024-03-09T05:10:33.602Z,9.23
2024-03-09T05:13:36.133Z,8.27
2024-03-09T05:16:37.963Z,8.18
2024-03-09T05:19:39.517Z,9.32
2024-03-09T05:22:45.454Z,8.27
2024-03-09T05:25:48.165Z,7.45
2024-03-09T05:28:50.025Z,10.40
2024-03-09T05:31:51.634Z,8.98
2024-03-09T05:34:53.271Z,9.57
2024-03-09T05:37:56.141Z,7.93
2024-03-09T05:40:57.798Z,8.50
2024-03-09T05:43:59.451Z,8.07
2024-03-09T05:47:02.434Z,8.63
2024-03-09T05:50:04.534Z,7.50
2024-03-09T05:53:06.834Z,9.18
2024-03-09T05:56:09.953Z,9.32
2024-03-09T05:59:12.818Z,8.43
2024-03-09T06:02:14.741Z,7.40
2024-03-09T06:05:16.713Z,7.85
2024-03-09T06:08:19.074Z,7.63
2024-03-09T06:11:20.837Z,8.57
2024-03-09T06:14:25.066Z,8.20
2024-03-09T06:17:26.799Z,6.00
2024-03-09T06:20:29.862Z,9.05
2024-03-09T06:23:32.101Z,6.78
2024-03-09T06:26:35.271Z,7.65
2024-03-09T06:29:38.651Z,8.15
2024-03-09T06:32:40.321Z,7.40
2024-03-09T06:35:45.630Z,7.22
2024-03-09T06:38:49.667Z,9.05
2024-03-09T06:41:53.534Z,7.53
2024-03-09T06:44:55.358Z,7.22
2024-03-09T06:47:59.142Z,8.45
2024-03-09T06:51:01.002Z,8.55
2024-03-09T06:54:02.600Z,8.35
2024-03-09T06:57:04.257Z,8.35
2024-03-09T07:00:13.864Z,9.77
2024-03-09T07:03:15.637Z,6.82
2024-03-09T07:06:17.329Z,8.43
2024-03-09T07:09:20.667Z,7.45
2024-03-09T07:12:22.586Z,9.07
2024-03-09T07:15:26.431Z,7.75
2024-03-09T07:18:32.129Z,7.57
2024-03-09T07:21:34.345Z,7.37
2024-03-09T07:24:37.285Z,7.03
2024-03-09T07:27:42.156Z,6.75
2024-03-09T07:30:43.917Z,9.45
2024-03-09T07:33:45.489Z,6.57
2024-03-09T07:36:47.100Z,7.70
2024-03-09T07:39:48.700Z,6.90
2024-03-09T07:42:51.275Z,7.80
2024-03-09T07:45:52.845Z,5.90
2024-03-09T07:48:54.813Z,9.13
2024-03-09T07:51:57.353Z,6.53
2024-03-09T07:54:59.019Z,6.53
2024-03-09T07:58:13.150Z,6.72
2024-03-09T08:01:20.155Z,6.40
2024-03-09T08:04:22.172Z,7.30
2024-03-09T08:07:23.722Z,6.65
2024-03-09T08:10:26.982Z,6.47
2024-03-09T08:13:29.676Z,6.55
2024-03-09T08:16:34.163Z,7.97
2024-03-09T08:19:37.674Z,7.60
2024-03-09T08:22:41.257Z,6.55
2024-03-09T08:25:43.428Z,5.55
2024-03-09T08:28:45.269Z,6.78
2024-03-09T08:31:47.700Z,6.47
2024-03-09T08:34:49.446Z,6.53
2024-03-09T08:37:53.691Z,7.10
2024-03-09T08:40:55.385Z,7.95
2024-03-09T08:43:57.013Z,6.90
2024-03-09T08:46:58.918Z,6.35
2024-03-09T08:50:00.636Z,7.00
2024-03-09T08:53:02.309Z,7.15
2024-03-09T08:56:04.851Z,6.13
2024-03-09T08:59:06.498Z,6.30
2024-03-09T09:02:08.578Z,7.00
2024-03-09T09:05:13.437Z,7.10
2024-03-09T09:08:18.219Z,6.60
2024-03-09T09:11:20.168Z,7.38
2024-03-09T09:14:21.788Z,7.63
2024-03-09T09:17:23.803Z,6.25
2024-03-09T09:20:26.009Z,6.45
2024-03-09T09:23:27.797Z,6.07
2024-03-09T09:26:30.022Z,6.68
2024-03-09T09:29:31.765Z,6.80
2024-03-09T09:32:33.567Z,6.45
2024-03-09T09:35:37.008Z,6.35
2024-03-09T09:38:38.752Z,6.13
2024-03-09T09:41:40.668Z,5.95
2024-03-09T09:44:43.731Z,7.35
2024-03-09T09:47:48.655Z,8.60
2024-03-09T09:50:51.083Z,9.35
2024-03-09T09:53:55.532Z,7.70
2024-03-09T09:56:58.189Z,6.68
2024-03-09T09:59:59.973Z,7.85
2024-03-09T10:03:02.608Z,12.27
2024-03-09T10:06:18.908Z,13.98
2024-03-09T10:09:29.524Z,16.38
2024-03-09T10:12:31.169Z,18.42
2024-03-09T10:15:37.767Z,18.23
2024-03-09T10:18:48.684Z,19.63
2024-03-09T10:21:52.834Z,18.73
2024-03-09T10:24:57.187Z,17.35
2024-03-09T10:28:01.768Z,15.35
2024-03-09T10:31:04.397Z,15.05
2024-03-09T10:34:09.537Z,15.80
2024-03-09T10:37:18.715Z,17.13
2024-03-09T10:40:21.839Z,15.68
2024-03-09T10:43:24.342Z,13.35
2024-03-09T10:46:29.018Z,17.35
2024-03-09T10:49:31.943Z,14.93
2024-03-09T10:52:34.534Z,13.18
2024-03-09T10:55:55.069Z,9.50
2024-03-09T10:58:58.496Z,12.82
2024-03-09T11:02:03.432Z,12.48
2024-03-09T11:05:06.695Z,10.52
2024-03-09T11:08:11.095Z,9.95
2024-03-09T11:11:14.817Z,10.80
2024-03-09T11:14:17.343Z,10.63
2024-03-09T11:17:24.928Z,10.00
2024-03-09T11:20:28.098Z,8.95
2024-03-09T11:23:37.166Z,12.27
2024-03-09T11:26:43.053Z,10.93
2024-03-09T11:29:45.012Z,14.55
2024-03-09T11:32:47.777Z,11.30
2024-03-09T11:35:50.436Z,10.57
2024-03-09T11:38:56.858Z,9.93
2024-03-09T11:42:11.303Z,8.38
2024-03-09T11:45:20.336Z,9.45
2024-03-09T11:48:23.230Z,8.85
2024-03-09T11:51:25.576Z,7.70
2024-03-09T11:54:28.317Z,11.45
2024-03-09T11:57:30.808Z,11.57
2024-03-09T12:00:32.451Z,9.15
2024-03-09T12:03:34.814Z,9.10
2024-03-09T12:06:39.873Z,8.75
2024-03-09T12:09:45.901Z,10.52
2024-03-09T12:12:51.382Z,9.57
2024-03-09T12:15:54.169Z,10.40
2024-03-09T12:18:58.468Z,9.48
2024-03-09T12:22:00.473Z,10.30
2024-03-09T12:25:02.604Z,10.57
2024-03-09T12:28:06.754Z,10.35
2024-03-09T12:31:11.041Z,10.75
2024-03-09T12:34:13.133Z,10.52
2024-03-09T12:37:27.693Z,12.90
2024-03-09T12:40:30.497Z,9.13
2024-03-09T12:43:34.757Z,11.13
2024-03-09T12:46:37.632Z,9.98
2024-03-09T12:49:39.461Z,10.90
2024-03-09T12:52:41.190Z,10.35
2024-03-09T12:55:45.138Z,10.10
2024-03-09T12:58:49.048Z,8.63
2024-03-09T13:01:52.130Z,9.70
2024-03-09T13:04:54.458Z,9.23
2024-03-09T13:08:00.498Z,8.43
2024-03-09T13:11:02.350Z,9.90
2024-03-09T13:14:05.358Z,8.60
2024-03-09T13:17:07.701Z,8.88
2024-03-09T13:20:12.775Z,7.30
2024-03-09T13:23:14.785Z,9.23
2024-03-09T13:26:19.493Z,9.95
2024-03-09T13:29:29.727Z,7.53
2024-03-09T13:32:33.326Z,7.88
2024-03-09T13:35:35.037Z,8.52
2024-03-09T13:38:36.947Z,8.07
2024-03-09T13:41:42.146Z,7.80
2024-03-09T13:44:43.861Z,7.22
2024-03-09T13:47:45.553Z,7.45
2024-03-09T13:50:47.287Z,7.05
2024-03-09T13:53:50.159Z,8.52
2024-03-09T13:56:51.799Z,7.65
2024-03-09T13:59:53.461Z,7.30
2024-03-09T14:02:58.099Z,8.02
2024-03-09T14:06:03.590Z,8.82
2024-03-09T14:09:05.359Z,7.80
2024-03-09T14:12:10.073Z,7.78
2024-03-09T14:15:22.224Z,8.05
2024-03-09T14:18:26.260Z,7.40
2024-03-09T14:21:27.937Z,7.95
2024-03-09T14:24:29.549Z,9.60
2024-03-09T14:27:32.182Z,6.90
2024-03-09T14:30:35.537Z,7.93
2024-03-09T14:33:37.383Z,8.43
2024-03-09T14:36:39.522Z,7.50
2024-03-09T14:39:44.908Z,7.10
2024-03-09T14:42:49.997Z,8.55
2024-03-09T14:45:54.568Z,7.82
2024-03-09T14:48:56.187Z,9.07
2024-03-09T14:51:57.966Z,8.73
2024-03-09T14:55:00.174Z,9.00
2024-03-09T14:58:03.883Z,9.07
2024-03-09T15:01:05.985Z,8.57
2024-03-09T15:04:09.714Z,7.05
2024-03-09T15:07:12.056Z,8.20
2024-03-09T15:10:13.741Z,12.13
2024-03-09T15:13:17.234Z,7.10
2024-03-09T15:16:24.091Z,9.25
2024-03-09T15:19:25.924Z,7.93
2024-03-09T15:22:28.389Z,7.25
2024-03-09T15:25:31.622Z,7.05
2024-03-09T15:28:33.183Z,7.53
2024-03-09T15:31:34.758Z,8.77
2024-03-09T15:34:37.643Z,8.55
2024-03-09T15:37:39.344Z,7.97
2024-03-09T15:40:40.996Z,11.50
2024-03-09T15:43:43.530Z,9.52
2024-03-09T15:46:45.447Z,12.57
2024-03-09T15:49:47.081Z,14.35
2024-03-09T15:52:48.723Z,12.88
2024-03-09T15:55:51.033Z,13.65
2024-03-09T15:58:52.912Z,12.63
2024-03-09T16:01:58.295Z,14.65
2024-03-09T16:04:59.998Z,10.10
2024-03-09T16:08:01.747Z,11.05
2024-03-09T16:11:03.762Z,9.52
2024-03-09T16:14:12.775Z,8.70
2024-03-09T16:17:18.058Z,8.60
2024-03-09T16:20:29.500Z,9.07
2024-03-09T16:23:31.887Z,8.32
2024-03-09T16:26:34.549Z,10.85
2024-03-09T16:29:36.531Z,11.25
2024-03-09T16:32:38.176Z,7.20
2024-03-09T16:35:45.652Z,8.40
2024-03-09T16:38:47.504Z,10.10
2024-03-09T16:41:49.284Z,16.48
2024-03-09T16:44:50.874Z,18.10
2024-03-09T16:47:54.534Z,16.05
2024-03-09T16:50:56.725Z,16.50
2024-03-09T16:53:58.434Z,15.25
2024-03-09T16:57:01.275Z,13.32
2024-03-09T17:00:03.105Z,12.95
2024-03-09T17:03:11.892Z,10.70
2024-03-09T17:06:16.671Z,10.38
2024-03-09T17:09:21.298Z,11.38
2024-03-09T17:12:25.775Z,10.48
2024-03-09T17:15:28.266Z,11.40
2024-03-09T17:18:30.352Z,10.30
2024-03-09T17:21:35.368Z,9.13
2024-03-09T17:24:39.087Z,10.65
2024-03-09T17:27:41.840Z,9.38
2024-03-09T17:30:43.452Z,9.80
2024-03-09T17:33:45.131Z,9.93
2024-03-09T17:36:49.412Z,8.35
2024-03-09T17:39:51.198Z,8.23
2024-03-09T17:42:53.632Z,13.27
2024-03-09T17:45:55.218Z,10.43
2024-03-09T17:48:56.787Z,10.90
2024-03-09T17:51:59.498Z,10.93
2024-03-09T17:55:02.459Z,11.35
2024-03-09T17:58:09.866Z,10.85
2024-03-09T18:01:12.986Z,11.20
2024-03-09T18:04:15.082Z,11.88
2024-03-09T18:07:16.698Z,12.65
2024-03-09T18:10:18.708Z,13.55
2024-03-09T18:13:20.453Z,12.90
2024-03-09T18:16:22.091Z,10.10
2024-03-09T18:19:24.984Z,11.25
2024-03-09T18:22:26.565Z,10.00
2024-03-09T18:25:28.118Z,12.00
2024-03-09T18:28:29.698Z,13.00
2024-03-09T18:31:31.288Z,13.98
2024-03-09T18:34:33.189Z,15.15
2024-03-09T18:37:38.613Z,13.98
2024-03-09T18:40:42.126Z,13.82
2024-03-09T18:43:43.878Z,12.63
2024-03-09T18:46:47.666Z,16.98
2024-03-09T18:49:49.601Z,14.63
2024-03-09T18:52:54.050Z,11.48
2024-03-09T18:55:55.915Z,11.30
2024-03-09T18:58:58.570Z,9.85
2024-03-09T19:02:00.238Z,8.73
2024-03-09T19:05:02.154Z,8.27
2024-03-09T19:08:05.056Z,9.98
2024-03-09T19:11:07.720Z,12.75
2024-03-09T19:14:13.665Z,10.20
2024-03-09T19:17:15.320Z,8.85
2024-03-09T19:20:22.004Z,12.77
2024-03-09T19:23:24.247Z,8.70
2024-03-09T19:26:28.899Z,12.25
2024-03-09T19:29:30.620Z,8.90
2024-03-09T19:32:33.029Z,9.05
2024-03-09T19:35:37.306Z,8.25
2024-03-09T19:38:39.010Z,10.40
2024-03-09T19:41:41.320Z,10.02
2024-03-09T19:44:45.075Z,7.32
2024-03-09T19:47:48.408Z,7.97
2024-03-09T19:50:50.127Z,11.02
2024-03-09T19:53:51.848Z,7.25
2024-03-09T19:56:56.208Z,7.63
2024-03-09T19:59:58.426Z,8.30
2024-03-09T20:03:00.847Z,11.43
2024-03-09T20:06:03.759Z,7.53
2024-03-09T20:09:06.457Z,10.10
2024-03-09T20:12:10.784Z,8.27
2024-03-09T20:15:14.954Z,7.15
2024-03-09T20:18:16.678Z,6.50
2024-03-09T20:21:18.363Z,6.68
2024-03-09T20:24:19.980Z,7.53
2024-03-09T20:27:22.081Z,8.30
2024-03-09T20:30:23.832Z,7.93
2024-03-09T20:33:25.597Z,10.63
2024-03-09T20:36:27.211Z,9.10
2024-03-09T20:39:28.798Z,8.15
2024-03-09T20:42:30.525Z,6.95
2024-03-09T20:45:32.156Z,7.43
2024-03-09T20:48:33.987Z,6.20
2024-03-09T20:51:39.774Z,6.75
2024-03-09T20:54:41.382Z,7.75
2024-03-09T20:57:43.126Z,8.02
2024-03-09T21:00:47.015Z,6.57
2024-03-09T21:03:50.597Z,7.97
2024-03-09T21:06:52.429Z,7.13
2024-03-09T21:09:54.111Z,5.63
2024-03-09T21:13:00.028Z,6.25
2024-03-09T21:16:02.129Z,5.68
2024-03-09T21:19:03.913Z,7.45
2024-03-09T21:22:07.537Z,8.88
2024-03-09T21:25:11.818Z,6.45
2024-03-09T21:28:14.846Z,6.25
2024-03-09T21:31:16.546Z,6.38
2024-03-09T21:34:18.432Z,6.55
2024-03-09T21:37:22.069Z,5.85
2024-03-09T21:40:24.431Z,7.82
2024-03-09T21:43:26.146Z,6.28
2024-03-09T21:46:27.806Z,6.15
2024-03-09T21:49:29.630Z,6.95
2024-03-09T21:52:32.071Z,6.68
2024-03-09T21:55:35.304Z,6.75
2024-03-09T21:58:37.209Z,5.47
2024-03-09T22:01:38.966Z,5.65
2024-03-09T22:04:40.726Z,5.97
2024-03-09T22:07:42.603Z,5.75
2024-03-09T22:10:44.280Z,5.57
2024-03-09T22:13:50.256Z,6.18
2024-03-09T22:16:52.830Z,5.85
2024-03-09T22:19:54.493Z,5.75
2024-03-09T22:22:56.174Z,5.30
2024-03-09T22:25:58.026Z,5.85
2024-03-09T22:28:59.720Z,5.32
2024-03-09T22:32:01.656Z,6.38
2024-03-09T22:35:03.869Z,7.78
2024-03-09T22:38:05.558Z,5.60
2024-03-09T22:41:07.847Z,6.57
2024-03-09T22:44:09.679Z,5.85
2024-03-09T22:47:11.457Z,7.88
2024-03-09T22:50:15.210Z,6.13
2024-03-09T22:53:17.108Z,6.68
2024-03-09T22:56:18.837Z,4.85
2024-03-09T22:59:21.019Z,7.18
2024-03-09T23:02:23.893Z,6.35
2024-03-09T23:05:27.186Z,5.57
2024-03-09T23:08:29.520Z,5.20
2024-03-09T23:11:31.266Z,9.10
2024-03-09T23:14:32.915Z,5.68
2024-03-09T23:17:40.588Z,5.13
2024-03-09T23:20:42.210Z,8.40
2024-03-09T23:23:46.888Z,5.90
2024-03-09T23:26:49.871Z,6.30
2024-03-09T23:29:51.603Z,5.53
2024-03-09T23:32:55.378Z,8.13
2024-03-09T23:35:58.780Z,4.90
2024-03-09T23:39:00.431Z,5.65
2024-03-09T23:42:05.287Z,6.05
2024-03-09T23:45:11.471Z,7.28
2024-03-09T23:48:14.716Z,6.50
2024-03-09T23:51:16.412Z,6.22
2024-03-09T23:54:18.901Z,5.45
2024-03-09T23:57:20.670Z,6.68
